Time;durP1;ratioP1;P1;durP2;ratioP2;P2;SDS_P1;SDS_P2;PMS_P1;PMS_P2;Temp;Humidity;BMP_temperature;BMP_pressure;BME280_temperature;BME280_humidity;BME280_pressure;Samples;Min_cycle;Max_cycle;Signal;HPM_P1;HPM_P2
2022/08/14 00:01:12;;;;;;;7.25;5.13;;;;;;;21.81;50.66;101033.56;5087851;28;20158;-73
2022/08/14 00:03:37;;;;;;;5.57;5.07;;;;;;;21.79;50.32;101028.34;5089345;28;20113;-73
2022/08/14 00:06:03;;;;;;;6.90;5.13;;;;;;;21.77;49.97;101038.22;5085340;28;20035;-73
2022/08/14 00:08:30;;;;;;;5.25;4.75;;;;;;;21.75;48.73;101029.53;5090320;28;20054;-72
2022/08/14 00:10:55;;;;;;;4.97;4.45;;;;;;;21.75;49.64;101028.69;5089109;28;20382;-73
2022/08/14 00:13:27;;;;;;;5.88;5.00;;;;;;;21.77;47.58;101010.88;5086953;28;20023;-72
2022/08/14 00:15:52;;;;;;;5.00;4.50;;;;;;;21.78;47.63;101010.75;5086950;28;20041;-72
2022/08/14 00:18:20;;;;;;;6.43;4.75;;;;;;;21.80;47.90;101015.97;5087063;28;20024;-72
2022/08/14 00:20:46;;;;;;;7.28;4.55;;;;;;;21.83;47.29;101015.75;5091748;28;20103;-72
2022/08/14 00:23:13;;;;;;;7.85;4.68;;;;;;;21.85;47.57;101010.34;5091980;28;20474;-75
2022/08/14 00:25:38;;;;;;;5.75;4.55;;;;;;;21.85;47.51;101013.84;5085968;28;20099;-72
2022/08/14 00:28:07;;;;;;;5.97;4.72;;;;;;;21.87;47.47;101005.78;5085568;28;20123;-72
2022/08/14 00:30:32;;;;;;;5.93;4.40;;;;;;;21.86;47.43;101007.59;5091769;28;20032;-72
2022/08/14 00:32:58;;;;;;;4.90;4.10;;;;;;;21.86;47.26;101001.44;5085987;28;20032;-72
2022/08/14 00:35:23;;;;;;;5.30;4.68;;;;;;;21.85;47.22;100987.38;5085003;28;20360;-72
2022/08/14 00:37:49;;;;;;;6.18;4.72;;;;;;;21.84;47.68;100988.31;5091038;28;20032;-72
2022/08/14 00:40:16;;;;;;;5.63;4.82;;;;;;;21.82;47.50;100987.59;5085668;28;20055;-72
2022/08/14 00:42:42;;;;;;;5.63;4.80;;;;;;;21.81;47.74;100989.38;5090111;28;20024;-72
2022/08/14 00:45:11;;;;;;;6.88;4.97;;;;;;;21.81;47.50;100985.88;5089346;28;20387;-72
2022/08/14 00:47:36;;;;;;;7.65;5.03;;;;;;;21.79;47.92;100988.63;5090409;28;20040;-72
2022/08/14 00:50:06;;;;;;;6.45;4.93;;;;;;;21.74;47.67;100974.88;5088093;28;20488;-72
2022/08/14 00:52:31;;;;;;;6.70;4.65;;;;;;;21.73;47.97;100972.31;5089379;28;20028;-73
2022/08/14 00:54:57;;;;;;;7.07;5.00;;;;;;;21.72;47.87;100970.63;5088747;28;20050;-72
2022/08/14 00:57:25;;;;;;;6.20;5.22;;;;;;;21.68;47.85;100976.19;5086608;28;20427;-72
2022/08/14 00:59:50;;;;;;;5.38;4.78;;;;;;;21.67;48.16;100974.47;5091835;28;20019;-72
2022/08/14 01:02:23;;;;;;;5.82;5.10;;;;;;;21.65;48.04;100963.16;5088667;28;20027;-72
2022/08/14 01:04:50;;;;;;;7.28;5.38;;;;;;;21.61;48.12;100969.59;5086604;28;20118;-72
2022/08/14 01:07:19;;;;;;;5.82;5.10;;;;;;;21.60;48.03;100973.22;5086549;28;20488;-72
2022/08/14 01:09:47;;;;;;;5.70;5.07;;;;;;;21.58;48.24;100967.13;5097912;28;20024;-73
2022/08/14 01:12:15;;;;;;;5.40;4.78;;;;;;;21.56;48.33;100966.41;5089722;28;20111;-72
2022/08/14 01:14:40;;;;;;;7.68;5.70;;;;;;;21.53;48.24;100961.31;5088182;28;20843;-72
2022/08/14 01:17:06;;;;;;;9.05;5.18;;;;;;;21.50;48.54;100953.63;5088306;28;20171;-73
2022/08/14 01:22:15;;;;;;;6.05;5.40;;;;;;;21.42;48.56;100948.84;5088602;28;20121;-72
2022/08/14 01:24:40;;;;;;;6.18;5.05;;;;;;;21.38;48.99;100945.56;5091601;28;20462;-72
2022/08/14 01:27:06;;;;;;;6.05;5.45;;;;;;;21.35;48.57;100945.75;5084874;28;20115;-72
2022/08/14 01:29:36;;;;;;;6.50;5.50;;;;;;;21.33;49.16;100938.91;5089617;28;20143;-72
2022/08/14 01:32:03;;;;;;;9.35;5.60;;;;;;;21.26;50.17;100938.47;5087254;28;20024;-72
2022/08/14 01:34:30;;;;;;;6.45;5.10;;;;;;;21.19;50.47;100937.19;5090890;28;20030;-72
2022/08/14 01:36:55;;;;;;;5.93;5.32;;;;;;;21.13;50.26;100929.72;5088237;28;20033;-72
2022/08/14 01:39:21;;;;;;;6.93;5.05;;;;;;;21.10;50.10;100932.56;5088836;28;20073;-72
2022/08/14 01:41:55;;;;;;;6.07;5.47;;;;;;;21.05;52.62;100924.94;5088036;28;20475;-72
2022/08/14 01:44:24;;;;;;;6.28;5.00;;;;;;;21.00;51.07;100929.69;5089715;28;20032;-72
2022/08/14 01:46:53;;;;;;;6.18;5.38;;;;;;;20.95;51.58;100930.03;5087114;28;20024;-72
2022/08/14 01:49:19;;;;;;;6.45;5.28;;;;;;;20.91;50.42;100926.75;5088359;28;20055;-72
2022/08/14 01:51:45;;;;;;;6.22;5.63;;;;;;;20.88;50.69;100928.75;5090239;28;20467;-72
2022/08/14 01:54:13;;;;;;;7.32;5.57;;;;;;;20.82;50.44;100929.19;5088067;28;20036;-72
2022/08/14 01:56:39;;;;;;;6.82;5.78;;;;;;;20.72;51.68;100937.69;5082823;28;20411;-72
2022/08/14 01:59:18;;;;;;;6.32;5.40;;;;;;;20.66;51.41;100934.59;5088633;28;20042;-72
2022/08/14 02:01:43;;;;;;;7.80;6.13;;;;;;;20.61;52.87;100937.56;5090802;28;20363;-72
2022/08/14 02:04:09;;;;;;;7.70;6.18;;;;;;;20.54;53.58;100936.25;5089232;28;20431;-72
2022/08/14 02:06:36;;;;;;;8.63;6.30;;;;;;;20.50;51.78;100942.69;5088929;28;20506;-72
2022/08/14 02:09:05;;;;;;;6.57;5.88;;;;;;;20.44;52.54;100941.31;5086410;28;20449;-72
2022/08/14 02:11:33;;;;;;;7.50;5.97;;;;;;;20.37;53.12;100935.59;5083376;28;20040;-70
2022/08/14 02:14:02;;;;;;;7.53;6.32;;;;;;;20.33;52.84;100926.16;5084815;28;20092;-72
2022/08/14 02:16:32;;;;;;;7.22;6.43;;;;;;;20.24;52.60;100926.78;5086880;28;20471;-70
2022/08/14 02:19:00;;;;;;;10.37;6.67;;;;;;;20.13;55.07;100923.06;5088257;28;20103;-70
2022/08/14 02:21:30;;;;;;;7.75;6.72;;;;;;;20.08;55.43;100935.69;5084267;28;20354;-72
2022/08/14 02:23:56;;;;;;;8.00;6.75;;;;;;;20.02;54.45;100922.88;5087776;28;20494;-70
2022/08/14 02:26:24;;;;;;;8.30;6.93;;;;;;;19.97;55.31;100932.91;5084683;28;20070;-70
2022/08/14 02:28:55;;;;;;;8.63;6.90;;;;;;;19.95;54.57;100935.63;5084716;28;20073;-70
2022/08/14 02:31:20;;;;;;;8.80;6.65;;;;;;;19.88;55.21;100926.44;5086126;28;20375;-70
2022/08/14 02:33:46;;;;;;;6.70;6.10;;;;;;;19.83;54.67;100931.94;5087455;28;20031;-70
2022/08/14 02:36:14;;;;;;;7.70;6.60;;;;;;;19.73;55.38;100922.91;5087151;28;20384;-70
2022/08/14 02:38:40;;;;;;;7.82;6.22;;;;;;;19.71;55.03;100920.41;5087440;28;20047;-72
2022/08/14 02:41:11;;;;;;;8.57;6.93;;;;;;;19.69;54.35;100930.19;5086862;28;20062;-69
2022/08/14 02:43:38;;;;;;;8.68;6.75;;;;;;;19.64;54.53;100916.44;5087984;28;20016;-70
2022/08/14 02:46:08;;;;;;;12.70;6.68;;;;;;;19.60;54.42;100920.19;5085029;28;20036;-70
2022/08/14 02:48:35;;;;;;;9.38;7.00;;;;;;;19.55;54.16;100920.50;5083558;28;20020;-70
2022/08/14 02:51:01;;;;;;;9.23;6.93;;;;;;;19.52;54.38;100918.03;5089197;28;20031;-70
2022/08/14 02:53:30;;;;;;;9.63;7.28;;;;;;;19.50;54.83;100917.28;5090176;28;20028;-70
2022/08/14 02:55:57;;;;;;;7.90;7.03;;;;;;;19.44;54.86;100915.06;5089710;28;20439;-70
2022/08/14 02:58:23;;;;;;;7.88;7.07;;;;;;;19.37;57.21;100909.31;5092284;28;20036;-70
2022/08/14 03:00:48;;;;;;;7.75;6.95;;;;;;;19.35;55.51;100902.41;5091178;28;20028;-70
2022/08/14 03:03:15;;;;;;;8.35;6.93;;;;;;;19.32;55.66;100910.50;5092557;28;20059;-70
2022/08/14 03:05:41;;;;;;;9.82;6.93;;;;;;;19.28;55.94;100909.88;5094419;28;20028;-70
2022/08/14 03:08:09;;;;;;;10.43;7.13;;;;;;;19.24;56.36;100903.94;5091588;28;20105;-70
2022/08/14 03:10:36;;;;;;;8.95;7.57;;;;;;;19.21;56.28;100909.41;5089209;28;20024;-70
2022/08/14 03:13:03;;;;;;;8.10;7.15;;;;;;;19.16;56.15;100908.81;5088638;28;20035;-70
2022/08/14 03:15:29;;;;;;;7.97;7.10;;;;;;;19.12;56.59;100904.69;5092653;28;20043;-69
2022/08/14 03:17:54;;;;;;;8.25;7.30;;;;;;;19.09;56.74;100900.44;5087936;28;20031;-70
2022/08/14 03:20:20;;;;;;;7.95;6.85;;;;;;;19.05;56.40;100908.63;5093132;28;20031;-70
2022/08/14 03:22:45;;;;;;;9.48;7.10;;;;;;;19.02;57.02;100899.13;5087390;28;20528;-70
2022/08/14 03:25:11;;;;;;;9.38;6.97;;;;;;;18.98;58.01;100887.06;5091114;28;20111;-70
2022/08/14 03:27:36;;;;;;;8.73;7.00;;;;;;;18.94;57.21;100886.41;5085657;28;20471;-70
2022/08/14 03:30:03;;;;;;;9.38;7.47;;;;;;;18.89;58.18;100888.44;5086438;28;20036;-71
2022/08/14 03:32:32;;;;;;;7.97;7.18;;;;;;;18.86;57.68;100882.50;5086847;28;20028;-70
2022/08/14 03:34:58;;;;;;;10.18;7.40;;;;;;;18.75;58.76;100885.78;5088352;28;20035;-70
2022/08/14 03:37:25;;;;;;;8.02;7.05;;;;;;;18.69;59.09;100896.69;5090291;28;20049;-70
2022/08/14 03:39:51;;;;;;;9.35;7.32;;;;;;;18.63;59.27;100888.19;5088552;28;20109;-70
2022/08/14 03:42:17;;;;;;;9.05;7.20;;;;;;;18.62;59.56;100893.56;5085309;28;20046;-72
2022/08/14 03:44:43;;;;;;;9.70;7.38;;;;;;;18.54;59.73;100891.38;5088637;28;20031;-72
2022/08/14 03:47:08;;;;;;;10.27;7.30;;;;;;;18.47;59.72;100884.75;5084531;28;20020;-69
2022/08/14 03:49:34;;;;;;;8.63;7.18;;;;;;;18.45;59.92;100894.53;5091570;28;20027;-71
2022/08/14 03:52:08;;;;;;;8.68;7.65;;;;;;;18.43;58.68;100885.91;5087020;28;20055;-69
2022/08/14 03:54:34;;;;;;;9.95;7.70;;;;;;;18.43;58.46;100893.81;5087823;28;20031;-72
2022/08/14 03:57:00;;;;;;;9.50;7.57;;;;;;;18.43;58.52;100886.75;5086997;28;20382;-72
2022/08/14 03:59:26;;;;;;;9.55;7.95;;;;;;;18.40;58.25;100886.91;5088314;28;20105;-72
2022/08/14 04:01:51;;;;;;;9.68;8.68;;;;;;;18.38;58.95;100880.03;5086790;28;20028;-72
2022/08/14 04:04:17;;;;;;;9.65;7.80;;;;;;;18.34;58.60;100882.00;5087105;28;21118;-72
2022/08/14 04:06:42;;;;;;;8.88;7.68;;;;;;;18.32;58.90;100876.81;5085402;28;20118;-69
2022/08/14 04:09:07;;;;;;;9.98;8.45;;;;;;;18.31;59.19;100882.19;5089086;28;20037;-72
2022/08/14 04:11:36;;;;;;;8.88;7.85;;;;;;;18.30;58.85;100878.69;5085820;28;20454;-72
2022/08/14 04:14:04;;;;;;;10.60;8.38;;;;;;;18.26;59.62;100879.81;5086880;28;20051;-72
2022/08/14 04:16:30;;;;;;;11.27;8.48;;;;;;;18.20;60.51;100880.16;5085190;28;20059;-70
2022/08/14 04:18:58;;;;;;;9.55;8.13;;;;;;;18.17;60.41;100880.34;5088346;28;20040;-70
2022/08/14 04:21:28;;;;;;;10.95;8.90;;;;;;;18.19;59.82;100881.09;5086862;28;20038;-70
2022/08/14 04:23:56;;;;;;;10.85;8.75;;;;;;;18.20;59.57;100877.53;5084595;28;20035;-70
2022/08/14 04:26:23;;;;;;;9.93;8.85;;;;;;;18.18;59.41;100869.75;5081519;28;20533;-69
2022/08/14 04:28:49;;;;;;;13.18;9.07;;;;;;;18.16;59.51;100870.75;5089183;28;20034;-70
2022/08/14 04:31:17;;;;;;;9.75;8.75;;;;;;;18.11;60.68;100870.16;5085518;28;20070;-70
2022/08/14 04:33:42;;;;;;;10.27;8.80;;;;;;;18.05;60.75;100872.22;5086632;28;20027;-69
2022/08/14 04:36:08;;;;;;;9.70;8.57;;;;;;;18.01;59.88;100865.41;5086991;28;20030;-70
2022/08/14 04:44:03;;;;;;;11.95;9.52;;;;;;;17.96;61.52;100869.22;5087339;28;20039;-72
2022/08/14 04:46:29;;;;;;;10.18;8.88;;;;;;;17.94;61.77;100855.28;5083344;28;20360;-72
2022/08/14 04:48:54;;;;;;;12.07;9.13;;;;;;;17.92;61.28;100854.53;5090527;28;20026;-71
2022/08/14 04:51:25;;;;;;;10.40;9.32;;;;;;;17.91;62.38;100848.44;5084842;28;20032;-69
2022/08/14 04:53:51;;;;;;;11.15;8.93;;;;;;;17.90;62.65;100849.38;5088264;28;20031;-71
2022/08/14 04:56:21;;;;;;;13.55;8.52;;;;;;;17.89;61.86;100855.56;5084386;28;20020;-72
2022/08/14 04:58:48;;;;;;;10.55;8.38;;;;;;;17.90;62.41;100852.00;5090867;28;20032;-72
2022/08/14 05:01:14;;;;;;;15.23;8.32;;;;;;;17.86;61.64;100847.84;5086108;28;20257;-72
2022/08/14 05:03:40;;;;;;;13.68;8.95;;;;;;;17.84;61.66;100849.69;5088975;28;20020;-69
2022/08/14 05:06:07;;;;;;;10.88;9.20;;;;;;;17.86;61.96;100845.19;5089637;28;20031;-69
2022/08/14 05:08:33;;;;;;;11.68;9.13;;;;;;;17.88;61.43;100838.91;5091168;28;20020;-72
2022/08/14 05:11:01;;;;;;;11.23;9.50;;;;;;;17.90;61.62;100844.94;5087218;28;20035;-72
2022/08/14 05:13:28;;;;;;;10.65;9.48;;;;;;;17.95;61.12;100841.19;5090059;28;20074;-72
2022/08/14 05:15:57;;;;;;;11.30;9.63;;;;;;;17.99;61.42;100840.13;5090567;28;20032;-70
2022/08/14 05:18:25;;;;;;;11.68;10.00;;;;;;;17.97;62.19;100837.53;5091335;28;20016;-70
2022/08/14 05:20:56;;;;;;;10.25;9.25;;;;;;;17.99;62.37;100835.69;5089530;28;20049;-72
2022/08/14 05:23:25;;;;;;;14.23;9.48;;;;;;;18.02;63.25;100834.66;5088942;28;20039;-72
2022/08/14 05:25:53;;;;;;;10.38;9.20;;;;;;;18.05;63.72;100840.63;5087651;28;20038;-69
2022/08/14 05:28:21;;;;;;;12.65;9.45;;;;;;;18.10;63.96;100842.16;5092110;28;20103;-71
2022/08/14 05:30:49;;;;;;;13.40;8.95;;;;;;;18.13;62.81;100834.91;5086642;28;20044;-72
2022/08/14 05:33:17;;;;;;;9.90;8.88;;;;;;;18.22;63.87;100835.31;5087936;28;20483;-72
2022/08/14 05:35:43;;;;;;;11.43;9.07;;;;;;;18.27;64.72;100833.25;5090223;28;20417;-71
2022/08/14 05:38:15;;;;;;;11.13;9.23;;;;;;;18.30;64.02;100833.91;5090818;28;20471;-72
2022/08/14 05:40:43;;;;;;;12.48;9.20;;;;;;;18.37;64.14;100830.94;5088411;28;20055;-69
2022/08/14 05:43:09;;;;;;;10.23;9.23;;;;;;;18.44;63.31;100827.00;5090788;28;20024;-69
2022/08/14 05:45:34;;;;;;;10.90;8.40;;;;;;;18.52;62.58;100829.19;5090431;28;20032;-71
2022/08/14 05:48:01;;;;;;;10.70;9.10;;;;;;;18.59;62.37;100839.28;5091112;28;20020;-72
2022/08/14 05:50:26;;;;;;;11.77;9.10;;;;;;;18.69;62.88;100842.22;5089344;28;20387;-69
2022/08/14 05:52:53;;;;;;;10.85;8.30;;;;;;;18.77;62.58;100834.66;5091558;28;20031;-72
2022/08/14 05:55:19;;;;;;;12.65;9.10;;;;;;;18.88;61.83;100833.16;5089087;28;20108;-69
2022/08/14 05:57:47;;;;;;;11.10;8.50;;;;;;;18.98;62.12;100830.84;5089999;28;20027;-70
2022/08/14 06:00:14;;;;;;;12.70;8.75;;;;;;;19.08;61.64;100829.34;5088794;28;20023;-72
2022/08/14 06:02:39;;;;;;;12.70;8.88;;;;;;;19.20;61.64;100827.75;5089304;28;20028;-69
2022/08/14 06:05:05;;;;;;;9.50;8.50;;;;;;;19.30;61.89;100828.00;5088188;28;20043;-72
2022/08/14 06:07:30;;;;;;;10.80;8.95;;;;;;;19.39;62.07;100836.16;5089451;28;20039;-72
2022/08/14 06:09:55;;;;;;;9.88;8.18;;;;;;;19.46;61.96;100823.47;5084149;28;20067;-69
2022/08/14 06:12:20;;;;;;;11.82;8.25;;;;;;;19.56;60.97;100829.84;5079759;28;20027;-72
2022/08/14 06:14:46;;;;;;;9.98;7.97;;;;;;;19.67;60.73;100823.00;5084857;28;20423;-69
2022/08/14 06:17:11;;;;;;;10.57;8.57;;;;;;;19.77;59.99;100826.75;5081756;28;20032;-72
2022/08/14 06:19:36;;;;;;;9.30;8.10;;;;;;;19.86;60.47;100828.78;5082779;28;20428;-69
2022/08/14 06:22:02;;;;;;;10.38;8.80;;;;;;;19.97;60.76;100830.75;5087884;28;20033;-72
2022/08/14 06:24:27;;;;;;;9.85;8.70;;;;;;;20.07;60.18;100832.81;5083879;28;20031;-72
2022/08/14 06:26:52;;;;;;;10.13;8.45;;;;;;;20.17;60.19;100828.59;5086493;28;20060;-72
2022/08/14 06:29:18;;;;;;;10.55;8.48;;;;;;;20.28;59.86;100825.25;5081141;28;20406;-72
2022/08/14 06:31:43;;;;;;;10.60;8.82;;;;;;;20.37;59.84;100827.25;5084646;28;20084;-71
2022/08/14 06:34:08;;;;;;;10.10;8.65;;;;;;;20.46;60.78;100821.34;5081164;28;20051;-71
2022/08/14 06:36:37;;;;;;;9.18;8.25;;;;;;;20.57;59.14;100822.41;5078856;28;20066;-71
2022/08/14 06:39:02;;;;;;;10.32;8.23;;;;;;;20.68;59.32;100819.03;5079085;28;20036;-71
2022/08/14 06:41:28;;;;;;;9.07;8.18;;;;;;;20.77;58.89;100811.34;5081486;28;20040;-71
2022/08/14 06:43:53;;;;;;;9.88;8.60;;;;;;;20.89;59.81;100822.00;5080026;28;20069;-71
2022/08/14 06:46:18;;;;;;;9.10;8.02;;;;;;;20.99;58.80;100815.16;5081221;28;20510;-71
2022/08/14 06:48:43;;;;;;;11.40;8.35;;;;;;;21.09;58.49;100812.69;5078506;28;20053;-71
2022/08/14 06:51:09;;;;;;;9.77;7.85;;;;;;;21.18;58.19;100809.38;5077937;28;20059;-72
2022/08/14 06:53:34;;;;;;;8.75;7.80;;;;;;;21.28;58.22;100798.13;5078889;28;20028;-72
2022/08/14 06:55:59;;;;;;;8.02;7.18;;;;;;;21.37;57.59;100803.59;5077205;28;20020;-71
2022/08/14 06:58:25;;;;;;;9.05;7.93;;;;;;;21.46;56.95;100791.50;5084534;28;20024;-72
2022/08/14 07:06:19;;;;;;;9.18;7.38;;;;;;;21.74;56.38;100801.91;5077732;28;20039;-71
2022/08/14 07:08:44;;;;;;;9.88;8.02;;;;;;;21.82;55.69;100797.75;5080448;28;20024;-71
2022/08/14 07:11:11;;;;;;;9.23;7.93;;;;;;;21.90;56.85;100791.88;5079699;28;20031;-71
2022/08/14 07:13:37;;;;;;;9.60;7.13;;;;;;;21.98;56.12;100792.16;5080239;28;20032;-70
2022/08/14 07:16:02;;;;;;;9.73;7.72;;;;;;;22.08;55.10;100792.31;5082686;28;20047;-72
2022/08/14 07:18:30;;;;;;;9.15;7.10;;;;;;;22.14;54.63;100793.63;5083157;28;20023;-71
2022/08/14 07:20:58;;;;;;;8.02;7.22;;;;;;;22.21;54.73;100797.50;5078539;28;20029;-71
2022/08/14 07:23:24;;;;;;;7.97;7.10;;;;;;;22.26;54.94;100790.06;5079619;28;20356;-72
2022/08/14 07:25:52;;;;;;;8.02;6.97;;;;;;;22.34;54.37;100792.13;5080254;28;20125;-72
2022/08/14 07:28:23;;;;;;;8.77;7.60;;;;;;;22.40;54.18;100785.50;5084114;28;20040;-72
2022/08/14 07:30:49;;;;;;;8.57;7.22;;;;;;;22.47;54.48;100785.88;5078124;28;20054;-69
2022/08/14 07:33:15;;;;;;;8.15;6.72;;;;;;;22.53;53.92;100781.00;5079201;28;20036;-72
2022/08/14 07:35:41;;;;;;;7.70;6.60;;;;;;;22.63;53.19;100790.88;5081532;28;20028;-70
2022/08/14 07:38:07;;;;;;;8.50;6.95;;;;;;;22.69;53.74;100787.75;5085577;28;20031;-72
2022/08/14 07:40:33;;;;;;;8.48;7.07;;;;;;;22.76;53.66;100791.59;5083833;28;20027;-70
2022/08/14 07:42:59;;;;;;;9.73;6.88;;;;;;;22.83;52.51;100787.50;5085757;28;20515;-70
2022/08/14 07:45:25;;;;;;;8.98;6.95;;;;;;;22.91;53.79;100789.53;5084039;28;20036;-70
2022/08/14 07:47:51;;;;;;;7.78;6.57;;;;;;;22.98;53.19;100784.59;5082065;28;20031;-69
2022/08/14 07:50:18;;;;;;;8.38;6.60;;;;;;;23.04;52.46;100779.63;5084072;28;20884;-70
2022/08/14 07:52:45;;;;;;;7.60;6.25;;;;;;;23.10;52.16;100778.31;5084717;28;20490;-69
2022/08/14 07:55:12;;;;;;;8.88;6.43;;;;;;;23.15;51.99;100773.47;5084865;28;20115;-70
2022/08/14 07:57:42;;;;;;;9.13;7.18;;;;;;;23.22;51.89;100773.84;5084289;28;20034;-70
2022/08/14 08:00:14;;;;;;;7.18;6.35;;;;;;;23.25;52.13;100776.28;5083668;28;20032;-72
2022/08/14 08:02:41;;;;;;;8.52;6.32;;;;;;;23.31;53.10;100782.88;5082483;28;20024;-73
2022/08/14 08:05:08;;;;;;;9.73;6.43;;;;;;;23.37;54.19;100784.19;5082723;28;20062;-69
2022/08/14 08:07:35;;;;;;;7.78;6.80;;;;;;;23.43;51.41;100786.34;5088290;28;20054;-70
2022/08/14 08:12:53;;;;;;;7.20;6.00;;;;;;;23.56;50.91;100795.00;5085843;28;20075;-70
2022/08/14 08:15:19;;;;;;;6.85;6.15;;;;;;;23.61;51.16;100797.28;5082015;28;20111;-70
2022/08/14 08:17:44;;;;;;;6.95;6.25;;;;;;;23.67;51.07;100791.47;5083661;28;20106;-71
2022/08/14 08:20:18;;;;;;;8.52;6.10;;;;;;;23.75;50.61;100788.19;5086993;28;20078;-71
2022/08/14 08:22:44;;;;;;;9.30;6.63;;;;;;;23.82;50.78;100785.84;5085124;28;20056;-71
2022/08/14 08:25:10;;;;;;;7.50;6.80;;;;;;;23.87;52.41;100784.50;5082058;28;20051;-71
2022/08/14 08:27:35;;;;;;;7.68;6.60;;;;;;;23.94;51.81;100782.16;5083338;28;20028;-71
2022/08/14 08:30:09;;;;;;;8.00;6.13;;;;;;;23.99;50.76;100785.31;5087562;28;20375;-71
2022/08/14 08:32:41;;;;;;;7.50;6.35;;;;;;;24.04;50.14;100776.97;5082249;28;20583;-70
2022/08/14 08:35:17;;;;;;;8.40;6.28;;;;;;;24.10;50.33;100771.13;5083381;28;20028;-70
2022/08/14 08:37:42;;;;;;;7.53;6.10;;;;;;;24.16;51.39;100769.78;5083747;28;20031;-70
2022/08/14 08:40:08;;;;;;;7.28;6.20;;;;;;;24.21;51.08;100772.88;5078566;28;20054;-70
2022/08/14 08:42:33;;;;;;;7.32;6.07;;;;;;;24.28;51.01;100768.72;5081509;28;20108;-71
2022/08/14 08:44:58;;;;;;;8.55;6.28;;;;;;;24.36;51.00;100768.91;5081654;28;20110;-70
2022/08/14 08:47:24;;;;;;;8.40;6.75;;;;;;;24.43;50.36;100765.72;5081868;28;20043;-73
2022/08/14 08:49:51;;;;;;;7.30;6.15;;;;;;;24.50;51.27;100777.53;5083901;28;20093;-71
2022/08/14 08:52:16;;;;;;;7.13;6.35;;;;;;;24.55;50.40;100773.47;5084575;28;20093;-71
2022/08/14 08:54:52;;;;;;;8.60;6.57;;;;;;;24.59;49.68;100763.44;5084094;28;20032;-71
2022/08/14 08:57:17;;;;;;;7.55;6.80;;;;;;;24.64;49.26;100769.19;5081044;28;20085;-71
2022/08/14 08:59:43;;;;;;;8.02;5.93;;;;;;;24.72;49.46;100770.38;5081274;28;20024;-70
2022/08/14 09:02:08;;;;;;;6.57;5.88;;;;;;;24.77;49.26;100763.69;5080367;28;20096;-70
2022/08/14 09:04:40;;;;;;;7.05;6.22;;;;;;;24.83;49.91;100762.28;5079391;28;20107;-71
2022/08/14 09:07:07;;;;;;;7.07;6.38;;;;;;;24.85;48.77;100752.34;5083787;28;20613;-70
2022/08/14 09:09:33;;;;;;;7.50;6.60;;;;;;;24.89;48.04;100755.56;5084206;28;20108;-71
2022/08/14 09:12:00;;;;;;;7.75;6.43;;;;;;;24.94;48.29;100753.38;5084207;28;20035;-71
2022/08/14 09:14:28;;;;;;;7.45;6.43;;;;;;;24.99;48.44;100765.28;5079751;28;20081;-71
2022/08/14 09:16:54;;;;;;;7.32;6.43;;;;;;;25.06;47.93;100767.41;5080454;28;20043;-71
2022/08/14 09:19:20;;;;;;;7.43;6.35;;;;;;;25.13;48.82;100747.22;5082058;28;20110;-71
2022/08/14 09:21:45;;;;;;;7.03;5.95;;;;;;;25.18;48.90;100734.34;5082230;28;20097;-70
2022/08/14 09:24:11;;;;;;;7.72;5.60;;;;;;;25.27;48.08;100738.00;5081585;28;20024;-71
2022/08/14 09:26:38;;;;;;;8.50;6.32;;;;;;;25.34;46.51;100733.84;5079340;28;20035;-70
2022/08/14 09:29:05;;;;;;;6.85;5.55;;;;;;;25.41;46.52;100734.13;5080977;28;20509;-71
2022/08/14 09:31:32;;;;;;;6.63;5.72;;;;;;;25.47;48.19;100738.88;5082667;28;20534;-71
2022/08/14 09:34:04;;;;;;;6.57;5.88;;;;;;;25.52;48.19;100736.66;5081557;28;20035;-71
2022/08/14 09:36:57;;;;;;;8.07;5.25;;;;;;;25.58;46.55;100736.09;5077796;28;20116;-71
2022/08/14 09:39:45;;;;;;;6.05;5.45;;;;;;;25.66;46.20;100722.09;5077197;28;20032;-71
2022/08/14 09:42:19;;;;;;;7.15;5.60;;;;;;;25.75;45.62;100720.41;5081021;28;20028;-71
2022/08/14 09:45:14;;;;;;;7.63;5.57;;;;;;;25.80;45.96;100723.44;5081087;28;20127;-71
2022/08/14 09:47:55;;;;;;;6.35;5.60;;;;;;;25.86;45.60;100720.22;5080979;28;20024;-71
2022/08/14 09:50:24;;;;;;;7.20;5.07;;;;;;;25.96;44.00;100722.06;5081765;28;20027;-71
2022/08/14 09:53:02;;;;;;;7.97;5.25;;;;;;;26.04;45.14;100714.16;5079013;28;20032;-71
2022/08/14 09:55:32;;;;;;;7.95;5.75;;;;;;;26.10;45.10;100712.75;5079347;28;20034;-71
2022/08/14 09:58:13;;;;;;;7.72;5.55;;;;;;;26.16;45.77;100713.03;5078862;28;20098;-72
2022/08/14 10:00:46;;;;;;;6.68;5.97;;;;;;;26.18;45.58;100705.72;5079531;28;20119;-71
2022/08/14 10:03:11;;;;;;;7.35;5.93;;;;;;;26.20;47.24;100706.44;5079792;28;20096;-75
2022/08/14 10:05:38;;;;;;;7.13;5.88;;;;;;;26.26;46.19;100701.50;5079224;28;20035;-71
2022/08/14 10:08:15;;;;;;;6.85;5.70;;;;;;;26.32;44.37;100691.09;5075758;28;20039;-71
2022/08/14 10:10:40;;;;;;;6.00;5.40;;;;;;;26.38;47.03;100691.50;5078270;28;20031;-71
2022/08/14 10:13:20;;;;;;;5.88;5.25;;;;;;;26.46;43.95;100686.25;5076446;28;20356;-71
2022/08/14 10:15:45;;;;;;;6.22;5.22;;;;;;;26.54;44.21;100688.19;5076803;28;20031;-71
2022/08/14 10:18:13;;;;;;;6.25;5.18;;;;;;;26.61;42.71;100684.78;5078914;28;20130;-71
2022/08/14 10:20:43;;;;;;;5.85;5.35;;;;;;;26.68;42.48;100685.00;5078164;28;20027;-71
2022/08/14 10:23:17;;;;;;;6.55;5.13;;;;;;;26.76;42.80;100681.59;5075660;28;20475;-71
2022/08/14 10:25:49;;;;;;;6.35;5.25;;;;;;;26.80;44.09;100683.88;5077787;28;20054;-71
2022/08/14 10:28:17;;;;;;;6.90;5.60;;;;;;;26.87;43.80;100669.91;5074773;28;20032;-71
2022/08/14 10:30:47;;;;;;;6.05;5.30;;;;;;;26.90;42.26;100673.09;5073755;28;20054;-71
2022/08/14 10:33:24;;;;;;;7.43;5.57;;;;;;;26.97;43.75;100670.69;5071648;28;20028;-71
2022/08/14 10:35:49;;;;;;;7.72;5.57;;;;;;;27.00;43.10;100672.22;5076899;28;20032;-72
2022/08/14 10:38:26;;;;;;;7.93;5.65;;;;;;;27.03;43.21;100671.91;5075856;28;20024;-72
2022/08/14 10:40:51;;;;;;;7.00;5.22;;;;;;;27.05;44.25;100662.75;5079554;28;20441;-71
2022/08/14 10:43:19;;;;;;;5.50;4.90;;;;;;;27.07;43.30;100663.44;5082740;28;20561;-72
2022/08/14 10:45:54;;;;;;;5.63;5.03;;;;;;;27.14;43.84;100650.31;5077041;28;20483;-72
2022/08/14 10:48:20;;;;;;;6.10;4.88;;;;;;;27.21;43.04;100658.56;5072448;28;20375;-72
2022/08/14 10:50:50;;;;;;;7.53;5.22;;;;;;;27.25;42.17;100643.91;5075378;28;20097;-72
2022/08/14 10:53:26;;;;;;;5.70;5.20;;;;;;;27.30;42.90;100638.09;5069467;28;20056;-72
2022/08/14 10:55:57;;;;;;;6.13;5.18;;;;;;;27.34;42.08;100632.28;5073046;28;20523;-72
2022/08/14 10:58:28;;;;;;;5.30;4.80;;;;;;;27.38;42.45;100636.34;5074456;28;20032;-72
2022/08/14 11:00:56;;;;;;;5.13;4.43;;;;;;;27.45;40.71;100641.06;5074947;28;20111;-72
2022/08/14 11:03:24;;;;;;;4.95;4.43;;;;;;;27.49;39.32;100645.13;5072756;28;20081;-72
2022/08/14 11:05:52;;;;;;;9.88;4.68;;;;;;;27.56;39.81;100640.84;5075911;28;20374;-72
2022/08/14 11:08:30;;;;;;;7.22;4.97;;;;;;;27.63;40.12;100641.91;5077542;28;20032;-72
2022/08/14 11:10:59;;;;;;;5.68;4.53;;;;;;;27.68;39.21;100631.56;5076367;28;20055;-73
2022/08/14 11:13:28;;;;;;;4.85;4.32;;;;;;;27.73;39.28;100625.75;5076081;28;20123;-72
2022/08/14 11:15:56;;;;;;;6.07;4.25;;;;;;;27.75;37.09;100628.25;5078520;28;20036;-72
2022/08/14 11:18:22;;;;;;;5.95;3.95;;;;;;;27.76;37.62;100630.75;5079672;28;20028;-73
2022/08/14 11:20:49;;;;;;;4.65;3.92;;;;;;;27.80;37.76;100633.97;5081257;28;20024;-72
2022/08/14 11:23:17;;;;;;;4.70;4.28;;;;;;;27.82;39.77;100632.00;5080817;28;20106;-73
2022/08/14 11:25:44;;;;;;;4.90;4.25;;;;;;;27.83;36.68;100636.34;5080115;28;20039;-73
2022/08/14 11:28:13;;;;;;;5.95;4.15;;;;;;;27.83;37.59;100639.03;5074627;28;20024;-73
2022/08/14 11:30:41;;;;;;;6.28;4.47;;;;;;;27.81;37.02;100633.00;5081217;28;20117;-73
2022/08/14 11:33:07;;;;;;;5.28;4.07;;;;;;;27.85;37.42;100629.84;5087070;28;20402;-72
2022/08/14 11:35:32;;;;;;;4.80;4.07;;;;;;;27.92;36.63;100623.88;5086708;28;21459;-73
2022/08/14 11:38:01;;;;;;;5.03;4.22;;;;;;;27.98;38.25;100624.06;5084366;28;20102;-73
2022/08/14 11:40:30;;;;;;;4.20;3.80;;;;;;;28.01;36.56;100622.91;5086715;28;20115;-71
2022/08/14 11:42:56;;;;;;;6.25;4.22;;;;;;;28.05;37.10;100620.72;5084774;28;20035;-71